DNKT

Katsina / Yaradura Airport

Katsina, Nigeria
TAF DNKT 190930Z 1912/2018 22010KT 9999 FEW013 TEMPO 1917/1922 TS FEW020CB
Issued Valid From Valid To
Sep-19 @ 09:30 UTC
(13 hours ago)
Sep-19 @ 12:00 UTC
(11 hours ago)
Sep-20 @ 18:00 UTC
(in 19 hours)
Sep-19 @ 12:00 to Sep-20 @ 18:00
TAF DNKT 190930Z 1912/2018 22010KT 9999 FEW013
Wind Visibility Clouds
220° at 10 knots 10,000+ meters
  • Few at 1,300' AGL
Expired Click to View Sep-19 @ 17:00 to Sep-19 @ 22:00
TEMPO 1917/1922 TS FEW020CB
Clouds Conditions
  • Few at 2,000' AGL
  • Thunderstorm
TAF DNKT 190930Z 1912/2018 22010KT 9999 FEW013 TEMPO 1917/1922 TS FEW020CB
Issued Sep-19 @ 09:30 UTC
(13 hours ago)
Valid From Sep-19 @ 12:00 UTC
(11 hours ago)
Valid To Sep-20 @ 18:00 UTC
(in 19 hours)
Sep-19 @ 12:00 - Sep-20 @ 18:00
Wind Visibility
220° at 10 knots 10,000+ meters
Clouds
  • Few at 1,300' AGL
Sep-19 @ 17:00 - Sep-19 @ 22:00
Clouds
  • Few at 2,000' AGL
Conditions
  • Thunderstorm